Time;durP1;ratioP1;P1;durP2;ratioP2;P2;SDS_P1;SDS_P2;PMS_P1;PMS_P2;Temp;Humidity;BMP_temperature;BMP_pressure;BME280_temperature;BME280_humidity;BME280_pressure;Samples;Min_cycle;Max_cycle;Signal;HPM_P1;HPM_P2
2023/12/30 00:07:20;;;;;;;39.55;19.40;;;2.20;99.90;;;;;;21153193;28;20031;-52
2023/12/30 00:17:22;;;;;;;27.70;16.55;;;2.10;99.90;;;;;;21152347;28;20035;-54
2023/12/30 00:27:24;;;;;;;35.28;17.63;;;2.10;99.90;;;;;;21151674;28;20109;-56
2023/12/30 00:37:26;;;;;;;32.47;17.55;;;1.90;99.90;;;;;;21133348;28;20032;-55
2023/12/30 00:47:27;;;;;;;31.58;16.98;;;1.70;99.90;;;;;;21152416;28;20040;-47
2023/12/30 00:57:29;;;;;;;31.13;15.75;;;1.80;99.90;;;;;;21167609;28;20028;-52
2023/12/30 01:07:31;;;;;;;28.15;13.75;;;1.80;99.90;;;;;;21166940;28;20031;-53
2023/12/30 01:17:35;;;;;;;23.73;11.95;;;1.60;99.90;;;;;;21166303;28;20042;-54
2023/12/30 01:27:37;;;;;;;31.50;16.83;;;1.60;99.90;;;;;;21165081;28;20046;-49
2023/12/30 01:37:39;;;;;;;37.10;17.45;;;1.50;99.90;;;;;;21164787;28;20400;-49
2023/12/30 01:47:41;;;;;;;39.85;17.35;;;1.60;99.90;;;;;;21163739;28;20035;-50
2023/12/30 01:57:45;;;;;;;30.40;15.38;;;1.50;99.90;;;;;;21162379;28;20036;-50
2023/12/30 02:07:48;;;;;;;29.98;14.55;;;1.40;99.90;;;;;;21162480;28;20062;-52
2023/12/30 02:17:51;;;;;;;24.67;13.80;;;1.40;99.90;;;;;;21162267;28;20027;-45
2023/12/30 02:27:53;;;;;;;24.42;12.27;;;1.50;99.90;;;;;;21142235;28;20783;-55
2023/12/30 02:37:55;;;;;;;14.95;8.48;;;1.50;99.90;;;;;;21142352;28;20032;-51
2023/12/30 02:47:56;;;;;;;13.43;7.72;;;1.70;99.90;;;;;;21159224;28;20431;-52
2023/12/30 02:57:58;;;;;;;10.77;6.57;;;1.80;99.90;;;;;;21158003;28;20047;-53
2023/12/30 03:08:00;;;;;;;7.68;5.25;;;1.80;99.90;;;;;;21138984;28;20117;-52
2023/12/30 03:18:01;;;;;;;10.48;4.30;;;2.00;99.90;;;;;;21155797;28;20057;-55
2023/12/30 03:28:04;;;;;;;7.65;4.65;;;2.10;99.90;;;;;;21137256;28;20048;-55
2023/12/30 03:38:09;;;;;;;7.78;4.30;;;2.30;99.90;;;;;;21136798;28;20039;-53
2023/12/30 03:48:10;;;;;;;4.57;2.75;;;2.40;99.90;;;;;;21153682;28;20067;-53
2023/12/30 03:58:12;;;;;;;5.38;3.45;;;2.50;99.90;;;;;;21135253;28;20032;-52
2023/12/30 04:08:13;;;;;;;6.32;2.50;;;2.50;99.90;;;;;;21153039;28;20039;-54
2023/12/30 04:18:15;;;;;;;4.47;2.63;;;2.50;99.90;;;;;;21134335;28;20042;-54
2023/12/30 04:28:19;;;;;;;5.05;2.90;;;2.50;99.90;;;;;;21151608;28;20054;-49
2023/12/30 04:38:20;;;;;;;5.63;2.83;;;2.40;99.90;;;;;;21151461;28;20093;-51
2023/12/30 04:48:24;;;;;;;3.67;2.50;;;2.30;99.90;;;;;;21151225;28;20031;-54
2023/12/30 04:58:26;;;;;;;3.20;2.08;;;2.50;99.90;;;;;;21132293;28;20104;-50
2023/12/30 05:08:30;;;;;;;4.25;2.47;;;2.50;99.90;;;;;;21150447;28;20031;-54
2023/12/30 05:18:31;;;;;;;3.25;1.60;;;2.30;99.90;;;;;;21149993;28;20077;-47
2023/12/30 05:28:33;;;;;;;2.63;1.50;;;2.50;99.90;;;;;;21149385;28;20105;-52
2023/12/30 05:38:35;;;;;;;3.00;1.60;;;2.70;99.90;;;;;;21158280;28;20053;-51
2023/12/30 05:48:36;;;;;;;2.25;1.40;;;2.70;99.90;;;;;;21163958;28;20038;-53
2023/12/30 05:58:38;;;;;;;2.10;1.40;;;2.50;99.90;;;;;;20985279;28;20759;-52
2023/12/30 06:08:40;;;;;;;3.33;1.58;;;2.70;99.90;;;;;;21003988;28;20036;-53
2023/12/30 06:18:41;;;;;;;4.72;1.20;;;2.60;99.90;;;;;;21036519;28;20485;-50
2023/12/30 06:28:45;;;;;;;1.58;0.90;;;2.20;99.90;;;;;;21091142;28;20488;-48
2023/12/30 06:38:46;;;;;;;1.77;1.10;;;1.60;99.90;;;;;;21075567;28;20489;-53
2023/12/30 06:48:51;;;;;;;2.35;1.00;;;1.20;99.90;;;;;;21075009;28;20032;-50
2023/12/30 06:58:52;;;;;;;2.15;1.10;;;1.00;99.90;;;;;;21073758;28;20416;-44
2023/12/30 07:08:54;;;;;;;2.90;1.20;;;0.90;99.90;;;;;;21072603;28;20440;-47
2023/12/30 07:18:55;;;;;;;2.67;1.35;;;0.80;99.90;;;;;;21068558;28;20043;-48
2023/12/30 07:28:57;;;;;;;3.38;1.30;;;0.90;99.90;;;;;;21102655;28;20440;-51
2023/12/30 07:38:59;;;;;;;2.88;1.20;;;1.10;99.90;;;;;;21152577;28;20032;-50
2023/12/30 07:49:00;;;;;;;1.50;1.05;;;1.20;99.90;;;;;;21146754;28;20031;-52
2023/12/30 07:59:02;;;;;;;3.05;1.27;;;1.40;99.90;;;;;;21151170;28;20406;-53
2023/12/30 08:09:04;;;;;;;3.20;1.30;;;1.70;99.90;;;;;;21148984;28;20399;-49
2023/12/30 08:19:05;;;;;;;1.58;0.90;;;2.00;99.90;;;;;;21149908;28;20434;-53
2023/12/30 08:29:10;;;;;;;3.30;1.30;;;2.20;99.90;;;;;;21149169;28;20516;-56
2023/12/30 08:39:12;;;;;;;1.90;1.27;;;2.60;99.90;;;;;;21146858;28;20086;-57
2023/12/30 08:49:14;;;;;;;4.85;1.10;;;3.10;99.90;;;;;;21148606;28;20085;-56
2023/12/30 08:59:15;;;;;;;1.70;1.00;;;3.50;99.90;;;;;;21147604;28;20042;-50
2023/12/30 09:09:17;;;;;;;1.38;1.02;;;3.70;99.90;;;;;;21148886;28;20020;-58
2023/12/30 09:19:19;;;;;;;2.28;1.20;;;4.30;99.90;;;;;;21163540;28;20085;-59
2023/12/30 09:29:20;;;;;;;3.08;1.30;;;5.40;99.90;;;;;;21162937;28;20040;-59
2023/12/30 09:39:22;;;;;;;1.45;1.00;;;6.50;99.90;;;;;;21163152;28;20113;-51
2023/12/30 09:49:24;;;;;;;2.95;1.10;;;7.50;99.90;;;;;;21162275;28;20032;-57
2023/12/30 09:59:29;;;;;;;2.00;1.35;;;7.90;99.90;;;;;;21159618;28;20476;-58
2023/12/30 10:09:31;;;;;;;1.27;0.80;;;8.20;99.90;;;;;;21160061;28;20027;-58
2023/12/30 10:19:33;;;;;;;1.25;0.73;;;8.60;99.90;;;;;;21159085;28;20785;-58
2023/12/30 10:29:34;;;;;;;3.33;1.27;;;8.60;99.90;;;;;;21158066;28;20062;-52
2023/12/30 10:39:40;;;;;;;2.33;1.17;;;8.90;99.90;;;;;;21156507;28;20036;-46
2023/12/30 10:49:50;;;;;;;3.65;1.50;;;9.00;99.90;;;;;;21156151;28;20077;-58
2023/12/30 10:59:59;;;;;;;4.22;1.75;;;9.30;99.90;;;;;;21156522;28;20040;-50
2023/12/30 11:10:14;;;;;;;3.88;2.78;;;9.50;99.90;;;;;;21152218;28;20035;-52
2023/12/30 11:20:32;;;;;;;4.88;3.13;;;9.70;99.90;;;;;;21154239;28;20092;-51
2023/12/30 11:30:34;;;;;;;5.53;3.90;;;9.50;99.90;;;;;;21152262;28;20115;-48
2023/12/30 11:40:41;;;;;;;5.57;4.22;;;9.30;99.90;;;;;;21153226;28;20039;-58
2023/12/30 11:50:51;;;;;;;4.57;3.88;;;9.20;99.90;;;;;;21152374;28;20035;-50
2023/12/30 12:00:58;;;;;;;5.30;4.00;;;9.10;99.90;;;;;;21151273;28;20043;-47
2023/12/30 12:11:00;;;;;;;6.90;4.47;;;9.20;99.90;;;;;;21150844;28;20538;-49
2023/12/30 12:21:12;;;;;;;5.85;4.10;;;9.30;99.90;;;;;;21150499;28;20401;-57
2023/12/30 12:31:18;;;;;;;6.13;4.15;;;9.20;99.90;;;;;;21146946;28;20044;-56
2023/12/30 12:41:19;;;;;;;6.85;4.28;;;9.50;99.90;;;;;;21129143;28;20032;-54
2023/12/30 12:51:22;;;;;;;6.57;4.47;;;9.60;99.90;;;;;;21166728;28;20751;-46
2023/12/30 13:01:24;;;;;;;7.47;4.70;;;9.50;99.90;;;;;;21163897;28;20038;-53
2023/12/30 13:11:26;;;;;;;8.10;5.40;;;9.20;99.90;;;;;;21164321;28;20097;-57
2023/12/30 13:21:29;;;;;;;8.90;5.55;;;8.70;99.90;;;;;;21163756;28;20040;-49
2023/12/30 13:31:34;;;;;;;8.80;6.65;;;7.90;99.90;;;;;;21158035;28;20105;-49
2023/12/30 13:41:36;;;;;;;12.10;7.00;;;7.10;99.90;;;;;;21158072;28;20049;-55
2023/12/30 13:51:47;;;;;;;6.75;4.80;;;6.80;99.90;;;;;;21139704;27;20028;-48
2023/12/30 14:01:49;;;;;;;4.95;3.83;;;6.50;99.90;;;;;;21138414;27;20031;-54
2023/12/30 14:11:55;;;;;;;7.13;5.20;;;6.50;99.90;;;;;;21153477;27;20036;-45
2023/12/30 14:21:57;;;;;;;13.73;8.82;;;6.50;99.90;;;;;;21135891;27;20065;-48
2023/12/30 14:31:59;;;;;;;11.30;8.07;;;6.40;99.90;;;;;;21154785;27;20404;-45
2023/12/30 14:42:04;;;;;;;10.20;7.38;;;5.90;99.90;;;;;;21156380;27;20054;-46
2023/12/30 14:52:06;;;;;;;14.57;8.95;;;5.40;99.90;;;;;;21147870;27;20031;-50
2023/12/30 15:02:08;;;;;;;5.50;3.97;;;4.90;99.90;;;;;;21134428;28;20032;-45
2023/12/30 15:12:10;;;;;;;10.10;6.80;;;4.30;99.90;;;;;;21149022;27;20036;-49
2023/12/30 15:22:12;;;;;;;8.02;4.90;;;3.80;99.90;;;;;;21149382;27;20073;-48
2023/12/30 15:32:15;;;;;;;6.85;3.85;;;3.40;99.90;;;;;;21145937;28;20039;-53
2023/12/30 15:42:19;;;;;;;8.52;3.95;;;2.80;99.90;;;;;;21148112;28;20043;-48
2023/12/30 15:52:21;;;;;;;4.00;3.03;;;2.40;99.90;;;;;;21146416;28;20120;-45
2023/12/30 16:02:23;;;;;;;4.97;2.55;;;2.10;99.90;;;;;;21129918;28;20039;-51
2023/12/30 16:12:25;;;;;;;3.97;2.22;;;1.80;99.90;;;;;;21145561;28;20032;-51
2023/12/30 16:22:27;;;;;;;3.33;2.25;;;1.70;99.90;;;;;;21147360;27;20036;-45
2023/12/30 16:32:29;;;;;;;4.13;2.40;;;1.40;99.90;;;;;;21147441;28;20047;-52
2023/12/30 16:42:32;;;;;;;4.43;2.60;;;1.20;99.90;;;;;;21146229;28;20047;-43
2023/12/30 16:52:35;;;;;;;3.97;2.60;;;1.00;99.90;;;;;;21128392;28;20400;-46
2023/12/30 17:02:38;;;;;;;5.00;3.20;;;0.90;99.90;;;;;;21146292;28;20081;-45
2023/12/30 17:12:40;;;;;;;6.80;3.97;;;0.80;99.90;;;;;;21123728;28;20034;-44
2023/12/30 17:22:42;;;;;;;4.20;2.65;;;1.20;99.90;;;;;;21144936;28;20027;-49
2023/12/30 17:32:44;;;;;;;5.80;3.28;;;0.90;99.90;;;;;;21151089;28;20044;-54
2023/12/30 17:42:46;;;;;;;7.53;3.00;;;0.80;99.90;;;;;;21138790;28;20028;-54
2023/12/30 17:52:49;;;;;;;7.00;4.53;;;0.80;99.90;;;;;;21157766;27;20028;-49
2023/12/30 18:02:51;;;;;;;6.07;3.83;;;0.80;99.90;;;;;;21125787;27;20039;-45
2023/12/30 18:12:53;;;;;;;4.43;2.97;;;0.40;99.90;;;;;;21151542;27;20065;-53
2023/12/30 18:22:55;;;;;;;7.10;3.92;;;0.50;99.90;;;;;;21134891;27;20089;-51
2023/12/30 18:32:56;;;;;;;9.43;5.03;;;0.90;99.90;;;;;;21154618;27;20093;-43
2023/12/30 18:42:59;;;;;;;6.97;3.88;;;1.10;99.90;;;;;;21132492;27;20035;-47
2023/12/30 18:53:00;;;;;;;7.55;4.30;;;1.10;99.90;;;;;;21156438;27;20036;-48
2023/12/30 19:03:02;;;;;;;12.60;7.13;;;1.10;99.90;;;;;;21126094;27;20027;-50
2023/12/30 19:13:04;;;;;;;19.73;11.68;;;0.90;99.90;;;;;;21118421;27;20078;-51
2023/12/30 19:23:07;;;;;;;7.53;4.88;;;0.70;99.90;;;;;;21120203;27;20028;-54
2023/12/30 19:33:09;;;;;;;17.40;9.55;;;0.90;99.90;;;;;;21128527;27;20043;-52
2023/12/30 19:43:14;;;;;;;14.15;8.65;;;1.20;99.90;;;;;;21124514;27;20035;-43
2023/12/30 19:53:15;;;;;;;19.95;10.85;;;1.00;99.90;;;;;;21149138;27;20038;-54
2023/12/30 20:03:18;;;;;;;17.70;11.02;;;1.00;99.90;;;;;;21147066;28;20113;-49
2023/12/30 20:13:20;;;;;;;19.13;10.93;;;0.90;99.90;;;;;;21174064;27;20069;-51
2023/12/30 20:23:23;;;;;;;24.40;13.88;;;0.80;99.90;;;;;;21147132;28;20054;-45
2023/12/30 20:33:25;;;;;;;24.75;13.57;;;0.80;99.90;;;;;;21147714;28;20089;-54
2023/12/30 20:43:27;;;;;;;24.23;13.00;;;0.60;99.90;;;;;;21095567;28;20070;-53
2023/12/30 20:53:31;;;;;;;25.65;13.27;;;0.60;99.90;;;;;;21145415;28;20032;-52
2023/12/30 21:03:33;;;;;;;18.05;9.68;;;1.00;99.90;;;;;;21078863;28;20078;-47
2023/12/30 21:13:40;;;;;;;22.70;13.75;;;1.30;99.90;;;;;;21127915;28;20023;-50
2023/12/30 21:23:42;;;;;;;19.70;11.68;;;1.60;99.90;;;;;;21147723;28;20547;-44
2023/12/30 21:33:43;;;;;;;19.58;11.27;;;1.90;99.90;;;;;;21029415;28;20044;-45
2023/12/30 21:43:45;;;;;;;23.00;13.00;;;2.10;99.90;;;;;;21105542;28;20038;-51
2023/12/30 21:53:47;;;;;;;24.48;13.43;;;2.20;99.90;;;;;;21136485;28;20036;-51
2023/12/30 22:03:52;;;;;;;19.15;11.50;;;2.30;99.90;;;;;;21041953;28;20027;-55
2023/12/30 22:13:54;;;;;;;19.08;10.73;;;2.50;99.90;;;;;;21047050;28;20039;-47
2023/12/30 22:23:55;;;;;;;29.80;15.73;;;2.90;99.90;;;;;;21076410;28;20036;-49
2023/12/30 22:33:57;;;;;;;24.38;13.73;;;2.80;99.90;;;;;;21234514;27;20047;-55
2023/12/30 22:43:59;;;;;;;29.30;15.45;;;2.50;99.90;;;;;;21180817;27;20038;-48
2023/12/30 22:54:01;;;;;;;29.23;17.17;;;2.10;99.90;;;;;;21158866;28;20147;-46
2023/12/30 23:04:02;;;;;;;29.58;17.00;;;2.10;99.90;;;;;;21158703;28;20036;-53
2023/12/30 23:14:04;;;;;;;30.70;16.83;;;2.20;99.90;;;;;;21156756;28;20035;-51
2023/12/30 23:24:07;;;;;;;22.35;11.00;;;2.20;99.90;;;;;;21156146;28;20042;-51
2023/12/30 23:34:08;;;;;;;25.67;13.57;;;2.20;99.90;;;;;;21154947;28;20451;-50
2023/12/30 23:44:13;;;;;;;20.10;11.73;;;2.20;99.90;;;;;;21090012;28;20024;-55
2023/12/30 23:54:15;;;;;;;17.65;9.90;;;2.30;99.90;;;;;;21069743;28;20031;-40
